Time;durP1;ratioP1;P1;durP2;ratioP2;P2;SDS_P1;SDS_P2;PMS_P1;PMS_P2;Temp;Humidity;BMP_temperature;BMP_pressure;BME280_temperature;BME280_humidity;BME280_pressure;Samples;Min_cycle;Max_cycle;Signal;HPM_P1;HPM_P2
2022/01/28 00:03:18;;;;;;;13.52;2.10;;;;;;;3.23;100.00;102838.38;5250584;28;20102;-68
2022/01/28 00:05:49;;;;;;;11.95;1.70;;;;;;;3.09;100.00;102846.47;5249786;28;20364;-68
2022/01/28 00:08:20;;;;;;;15.40;1.88;;;;;;;3.04;100.00;102850.06;5249538;28;20037;-68
2022/01/28 00:10:52;;;;;;;11.10;2.30;;;;;;;3.02;100.00;102858.00;5250481;28;20032;-68
2022/01/28 00:13:36;;;;;;;15.55;2.72;;;;;;;3.00;100.00;102864.19;5250571;28;20108;-68
2022/01/28 00:38:47;;;;;;;9.43;1.75;;;;;;;2.60;100.00;102891.84;5249134;28;20470;-68
2022/01/28 00:41:18;;;;;;;14.38;2.60;;;;;;;2.43;100.00;102883.25;5248188;28;20040;-68
2022/01/28 00:43:50;;;;;;;13.15;2.10;;;;;;;2.47;100.00;102874.41;5247937;28;20020;-68
2022/01/28 00:46:21;;;;;;;17.35;2.70;;;;;;;2.41;100.00;102880.63;5248813;28;20029;-68
2022/01/28 00:48:52;;;;;;;15.90;2.83;;;;;;;2.35;100.00;102881.56;5251012;28;20036;-68
2022/01/28 00:51:23;;;;;;;13.63;2.53;;;;;;;2.38;100.00;102871.88;5249979;28;20033;-68
2022/01/28 00:53:55;;;;;;;16.60;2.65;;;;;;;2.41;100.00;102872.72;5250231;28;20107;-68
2022/01/28 00:56:26;;;;;;;18.13;2.72;;;;;;;2.43;100.00;102876.22;5249265;28;20478;-68
2022/01/28 00:58:57;;;;;;;17.55;2.38;;;;;;;2.50;100.00;102872.63;5251454;28;20033;-68
2022/01/28 01:01:29;;;;;;;12.98;2.78;;;;;;;2.46;100.00;102877.97;5254188;28;20052;-68
2022/01/28 01:04:01;;;;;;;15.43;2.28;;;;;;;2.51;100.00;102874.41;5247209;28;20032;-69
2022/01/28 01:06:33;;;;;;;11.20;2.10;;;;;;;2.49;100.00;102881.44;5248660;28;20028;-68
2022/01/28 01:09:04;;;;;;;17.40;2.50;;;;;;;2.51;100.00;102882.31;5248997;28;20033;-68
2022/01/28 01:11:39;;;;;;;15.80;2.70;;;;;;;2.51;100.00;102879.66;5243107;28;20036;-68
2022/01/28 01:14:11;;;;;;;21.77;2.40;;;;;;;2.55;100.00;102885.75;5241339;28;20067;-68
2022/01/28 01:17:25;;;;;;;15.43;2.28;;;;;;;2.60;100.00;102897.13;5243879;28;20083;-68
2022/01/28 01:19:44;;;;;;;16.30;3.08;;;;;;;2.62;100.00;102897.97;5242519;28;20604;-68
2022/01/28 01:22:18;;;;;;;15.55;1.83;;;;;;;2.64;100.00;102892.69;5245251;28;20056;-68
2022/01/28 01:24:52;;;;;;;15.30;2.33;;;;;;;2.66;100.00;102888.28;5247595;28;20500;-68
2022/01/28 01:27:23;;;;;;;16.80;2.40;;;;;;;2.65;100.00;102889.19;5248288;28;20109;-68
2022/01/28 01:29:55;;;;;;;13.48;2.25;;;;;;;2.61;100.00;102893.63;5248933;28;20029;-68
2022/01/28 01:32:26;;;;;;;19.23;2.42;;;;;;;2.55;100.00;102902.47;5241043;28;20033;-68
2022/01/28 01:34:57;;;;;;;12.05;2.20;;;;;;;2.54;100.00;102908.59;5252718;28;20029;-68
2022/01/28 01:37:29;;;;;;;10.57;1.85;;;;;;;2.47;100.00;102912.19;5249118;28;20021;-68
2022/01/28 01:40:00;;;;;;;15.30;2.63;;;;;;;2.47;100.00;102906.03;5252514;28;20028;-68
2022/01/28 01:42:46;;;;;;;8.35;1.73;;;;;;;2.42;100.00;102910.50;5245203;28;20032;-68
2022/01/28 01:53:44;;;;;;;14.30;2.40;;;;;;;2.38;100.00;102930.72;5245927;28;20423;-68
2022/01/28 01:56:16;;;;;;;18.27;2.47;;;;;;;2.42;100.00;102936.84;5249226;28;20024;-68
2022/01/28 01:58:47;;;;;;;15.20;2.63;;;;;;;2.37;100.00;102944.78;5244210;28;20070;-68
2022/01/28 02:01:19;;;;;;;13.02;3.35;;;;;;;2.37;100.00;102957.06;5251273;28;20032;-68
2022/01/28 02:03:51;;;;;;;16.05;2.50;;;;;;;2.38;100.00;102961.44;5249388;28;20035;-68
2022/01/28 02:06:22;;;;;;;12.40;2.58;;;;;;;2.34;100.00;102964.13;5249499;28;20116;-68
2022/01/28 02:08:54;;;;;;;19.00;2.55;;;;;;;2.32;100.00;102967.63;5244514;28;20033;-68
2022/01/28 02:11:25;;;;;;;15.10;2.50;;;;;;;2.39;100.00;102965.84;5246310;28;20364;-68
2022/01/28 02:13:56;;;;;;;18.33;2.60;;;;;;;2.33;100.00;102975.53;5243446;28;20052;-68
2022/01/28 02:16:28;;;;;;;16.77;2.65;;;;;;;2.37;100.00;102967.59;5249691;28;20039;-68
2022/01/28 02:19:00;;;;;;;13.57;2.78;;;;;;;2.38;100.00;102974.59;5255607;28;20104;-68
2022/01/28 02:21:39;;;;;;;15.23;2.55;;;;;;;2.38;100.00;102975.50;5247239;28;20033;-68
2022/01/28 02:24:13;;;;;;;16.92;2.63;;;;;;;2.37;100.00;102976.38;5248274;28;20519;-68
2022/01/28 02:26:44;;;;;;;18.60;2.77;;;;;;;2.40;100.00;102981.63;5247951;28;20029;-68
2022/01/28 02:29:26;;;;;;;22.52;3.15;;;;;;;2.49;100.00;102978.03;5239632;28;20111;-68
2022/01/28 02:31:59;;;;;;;17.60;2.72;;;;;;;2.47;100.00;102972.78;5244633;28;20038;-68
2022/01/28 02:34:33;;;;;;;14.23;2.42;;;;;;;2.44;100.00;102977.22;5244453;28;20116;-68
2022/01/28 02:37:04;;;;;;;12.87;2.40;;;;;;;2.47;100.00;102987.72;5248748;28;20707;-68
2022/01/28 02:39:36;;;;;;;20.35;3.28;;;;;;;2.41;100.00;102978.09;5242554;28;20086;-68
2022/01/28 02:42:20;;;;;;;15.68;2.30;;;;;;;2.35;100.00;102976.38;5252072;28;20483;-68
2022/01/28 02:44:55;;;;;;;15.57;2.72;;;;;;;2.33;100.00;102985.19;5249143;28;20033;-68
2022/01/28 02:47:33;;;;;;;13.80;2.13;;;;;;;2.30;100.00;102980.84;5251399;28;20043;-68
2022/01/28 02:50:07;;;;;;;19.70;3.17;;;;;;;2.40;100.00;102980.75;5250301;28;20033;-68
2022/01/28 02:52:50;;;;;;;15.80;2.53;;;;;;;2.42;100.00;102992.16;5252810;28;20029;-68
2022/01/28 02:55:21;;;;;;;14.15;2.53;;;;;;;2.45;100.00;102994.75;5247555;28;20032;-68
2022/01/28 02:58:04;;;;;;;18.33;2.33;;;;;;;2.42;100.00;103005.34;5247921;28;20427;-68
2022/01/28 03:00:35;;;;;;;14.23;2.30;;;;;;;2.39;100.00;102997.44;5254094;28;20029;-68
2022/01/28 03:03:07;;;;;;;14.88;2.30;;;;;;;2.39;100.00;103006.22;5256936;28;20028;-68
2022/01/28 03:05:39;;;;;;;13.93;2.72;;;;;;;2.37;100.00;103008.00;5255611;28;20530;-68
2022/01/28 03:08:12;;;;;;;15.63;1.95;;;;;;;2.36;100.00;103019.44;5260392;28;20033;-68
2022/01/28 03:13:46;;;;;;;16.08;2.85;;;;;;;2.36;100.00;103022.06;5260136;28;20920;-68
2022/01/28 03:16:20;;;;;;;;;;;;;;;2.38;100.00;103014.13;5250118;28;20047;-68
2022/01/28 03:19:43;;;;;;;21.17;2.60;;;;;;;2.42;100.00;103016.75;5256325;28;20347;-68
2022/01/28 03:21:54;;;;;;;14.00;2.10;;;;;;;2.39;100.00;103022.03;5245635;28;20087;-68
2022/01/28 03:24:27;;;;;;;18.98;2.70;;;;;;;2.44;100.00;103027.28;5264585;28;20472;-68
2022/01/28 03:27:05;;;;;;;14.30;2.50;;;;;;;2.51;100.00;103027.22;5252019;28;20033;-68
2022/01/28 03:29:36;;;;;;;16.20;3.08;;;;;;;2.55;100.00;103033.31;5252619;28;20048;-68
2022/01/28 03:32:07;;;;;;;14.27;2.35;;;;;;;2.61;100.00;103025.38;5255977;28;20495;-68
2022/01/28 03:34:39;;;;;;;11.60;2.53;;;;;;;2.63;100.00;103020.09;5259053;28;20466;-68
2022/01/28 03:37:11;;;;;;;15.48;2.90;;;;;;;2.63;100.00;103017.47;5268338;28;20031;-68
2022/01/28 03:39:42;;;;;;;14.23;2.35;;;;;;;2.65;100.00;103016.56;5253129;28;20382;-68
2022/01/28 03:42:14;;;;;;;18.10;2.63;;;;;;;2.72;100.00;103020.91;5255965;28;20028;-68
2022/01/28 03:44:45;;;;;;;14.88;2.83;;;;;;;2.69;100.00;103028.81;5259764;28;20025;-68
2022/01/28 03:47:16;;;;;;;17.70;2.50;;;;;;;2.69;100.00;103020.91;5252854;28;20033;-68
2022/01/28 03:49:47;;;;;;;20.95;3.97;;;;;;;2.69;100.00;103020.06;5253037;28;20032;-68
2022/01/28 03:52:19;;;;;;;12.40;2.70;;;;;;;2.60;100.00;103022.75;5253291;28;20029;-68
2022/01/28 03:54:50;;;;;;;14.95;2.55;;;;;;;2.57;100.00;103028.94;5251609;28;20502;-68
2022/01/28 03:57:21;;;;;;;17.27;2.30;;;;;;;2.52;100.00;103028.94;5245017;28;20082;-68
2022/01/28 03:59:52;;;;;;;18.98;3.03;;;;;;;2.47;100.00;103035.13;5250292;28;20403;-68
2022/01/28 04:02:28;;;;;;;11.48;1.92;;;;;;;2.42;100.00;103034.31;5252282;28;20029;-68
2022/01/28 04:13:29;;;;;;;12.00;2.00;;;;;;;2.21;100.00;103045.88;5245799;28;20101;-68
2022/01/28 04:17:19;;;;;;;12.27;2.00;;;;;;;2.18;100.00;103043.25;5244720;28;20115;-68
2022/01/28 04:19:01;;;;;;;18.98;2.65;;;;;;;2.15;100.00;103046.78;5251126;28;20043;-68
2022/01/28 04:21:32;;;;;;;12.40;2.53;;;;;;;2.15;100.00;103049.41;5244254;28;20075;-68
2022/01/28 04:24:04;;;;;;;13.05;1.80;;;;;;;2.10;100.00;103054.69;5255318;28;20104;-68
2022/01/28 04:26:35;;;;;;;13.60;1.65;;;;;;;2.06;100.00;103049.47;5244428;28;20024;-68
2022/01/28 04:29:07;;;;;;;11.13;1.80;;;;;;;2.06;100.00;103044.19;5253405;28;20136;-68
2022/01/28 04:31:46;;;;;;;11.75;1.85;;;;;;;2.12;100.00;103047.66;5248920;28;20055;-68
2022/01/28 04:34:19;;;;;;;12.43;1.73;;;;;;;2.11;100.00;103051.19;5251782;28;20483;-68
2022/01/28 04:37:11;;;;;;;14.27;1.90;;;;;;;2.18;100.00;103053.78;5251947;28;20720;-68
2022/01/28 04:39:57;;;;;;;10.98;2.17;;;;;;;2.12;100.00;103059.94;5250628;28;20454;-68
2022/01/28 04:42:47;;;;;;;11.95;2.60;;;;;;;2.25;100.00;103056.38;5250794;28;20024;-68
2022/01/28 04:45:28;;;;;;;17.83;3.28;;;;;;;2.28;100.00;103071.25;5254563;28;20100;-68
2022/01/28 04:48:11;;;;;;;17.85;3.95;;;;;;;2.34;100.00;103068.63;5250466;28;20025;-68
2022/01/28 04:50:58;;;;;;;14.27;3.05;;;;;;;2.32;100.00;103068.63;5243418;28;20108;-68
2022/01/28 04:58:50;;;;;;;16.20;3.78;;;;;;;2.24;100.00;103074.81;5245446;28;20025;-68
2022/01/28 05:29:08;;;;;;;22.73;5.60;;;;;;;1.72;100.00;103103.09;5242470;28;20040;-68
2022/01/28 05:31:39;;;;;;;21.67;5.15;;;;;;;1.64;100.00;103109.28;5246434;28;20557;-68
2022/01/28 05:34:10;;;;;;;22.67;5.00;;;;;;;1.60;100.00;103112.81;5244802;28;21587;-68
2022/01/28 05:36:42;;;;;;;23.80;5.47;;;;;;;1.60;100.00;103108.41;5249343;28;20103;-68
2022/01/28 05:39:13;;;;;;;24.60;5.85;;;;;;;1.55;100.00;103104.91;5253121;28;20029;-68
2022/01/28 05:41:44;;;;;;;23.45;5.55;;;;;;;1.54;100.00;103113.69;5245181;28;20029;-68
2022/01/28 05:44:18;;;;;;;20.05;5.88;;;;;;;1.49;100.00;103120.72;5249662;28;20024;-68
2022/01/28 05:46:51;;;;;;;21.57;5.50;;;;;;;1.47;100.00;103130.38;5242428;28;20632;-68
2022/01/28 05:49:22;;;;;;;22.67;5.90;;;;;;;1.46;100.00;103137.38;5247079;28;20028;-68
2022/01/28 05:51:54;;;;;;;23.88;5.97;;;;;;;1.44;100.00;103128.63;5246055;28;20105;-68
2022/01/28 05:54:25;;;;;;;20.45;5.40;;;;;;;1.44;100.00;103126.00;5247247;28;20072;-68
2022/01/28 05:56:56;;;;;;;22.20;6.28;;;;;;;1.33;100.00;103122.50;5247723;28;20024;-68
2022/01/28 05:59:27;;;;;;;23.90;6.03;;;;;;;1.37;100.00;103134.75;5246184;28;20032;-68
2022/01/28 06:01:59;;;;;;;20.48;5.50;;;;;;;1.28;100.00;103138.25;5248327;28;20035;-68
2022/01/28 06:04:30;;;;;;;23.83;5.00;;;;;;;1.22;100.00;103146.16;5248616;28;20028;-68
2022/01/28 06:07:02;;;;;;;23.27;5.63;;;;;;;1.22;100.00;103146.16;5248837;28;20028;-68
2022/01/28 06:09:33;;;;;;;16.73;4.53;;;;;;;1.18;100.00;103147.91;5248135;28;20395;-68
2022/01/28 06:12:05;;;;;;;18.15;5.30;;;;;;;1.14;100.00;103161.06;5247770;28;20527;-68
2022/01/28 06:14:36;;;;;;;20.52;5.85;;;;;;;1.13;100.00;103167.19;5246620;28;20127;-68
2022/01/28 06:17:08;;;;;;;22.23;6.40;;;;;;;1.13;100.00;103172.44;5246476;28;20231;-68
2022/01/28 06:19:39;;;;;;;17.77;5.32;;;;;;;1.11;100.00;103168.94;5244796;28;20044;-68
2022/01/28 06:22:10;;;;;;;16.63;5.22;;;;;;;1.01;100.00;103170.69;5248818;28;20116;-68
2022/01/28 06:24:41;;;;;;;21.73;5.75;;;;;;;0.96;100.00;103162.81;5248722;28;20029;-68
2022/01/28 06:27:13;;;;;;;16.02;6.07;;;;;;;0.92;100.00;103171.56;5247315;28;20116;-68
2022/01/28 06:29:44;;;;;;;23.08;5.75;;;;;;;1.01;100.00;103188.22;5248145;28;20036;-68
2022/01/28 06:32:16;;;;;;;21.58;5.50;;;;;;;0.94;100.00;103179.44;5247479;28;20025;-68
2022/01/28 06:34:47;;;;;;;17.10;5.40;;;;;;;0.91;100.00;103176.81;5247771;28;20082;-68
2022/01/28 06:37:19;;;;;;;15.48;5.20;;;;;;;0.86;100.00;103197.81;5248194;28;20429;-68
2022/01/28 06:39:50;;;;;;;16.35;5.20;;;;;;;0.73;100.00;103191.69;5248851;28;20124;-68
2022/01/28 06:42:21;;;;;;;14.27;5.18;;;;;;;0.76;100.00;103196.06;5252083;28;20045;-67
2022/01/28 06:44:52;;;;;;;18.13;5.05;;;;;;;0.81;100.00;103203.97;5254568;28;20386;-67
2022/01/28 06:47:24;;;;;;;16.33;5.43;;;;;;;0.73;100.00;103206.53;5254581;28;20044;-67
2022/01/28 06:49:55;;;;;;;22.70;5.50;;;;;;;0.60;100.00;103202.16;5252014;28;20037;-67
2022/01/28 06:52:26;;;;;;;24.38;6.32;;;;;;;0.66;100.00;103212.69;5252384;28;20028;-67
2022/01/28 06:55:00;;;;;;;17.02;6.03;;;;;;;0.65;100.00;103214.41;5253811;28;20263;-67
2022/01/28 06:57:32;;;;;;;16.67;4.97;;;;;;;0.58;100.00;103223.16;5252338;28;20138;-67
2022/01/28 07:00:06;;;;;;;19.17;5.25;;;;;;;0.63;100.00;103233.69;5250847;28;20026;-67
2022/01/28 07:02:38;;;;;;;17.88;5.25;;;;;;;0.55;100.00;103236.28;5249954;28;20055;-67
2022/01/28 07:05:09;;;;;;;16.75;5.03;;;;;;;0.58;100.00;103245.03;5252053;28;21110;-67
2022/01/28 07:07:41;;;;;;;19.70;5.38;;;;;;;0.52;100.00;103244.16;5253314;28;20305;-67
2022/01/28 07:10:12;;;;;;;16.25;4.95;;;;;;;0.48;100.00;103251.16;5252448;28;20032;-67
2022/01/28 07:12:43;;;;;;;14.25;5.10;;;;;;;0.47;100.00;103253.75;5251950;28;20090;-67
2022/01/28 07:15:14;;;;;;;14.43;4.28;;;;;;;0.47;100.00;103269.53;5251929;28;20052;-67
2022/01/28 07:17:46;;;;;;;16.92;5.40;;;;;;;0.42;100.00;103273.84;5248706;28;20114;-67
2022/01/28 07:20:17;;;;;;;20.75;5.70;;;;;;;0.37;100.00;103269.47;5251389;28;20506;-67
2022/01/28 07:22:50;;;;;;;18.98;4.97;;;;;;;0.36;100.00;103266.81;5250842;28;20583;-67
2022/01/28 07:25:21;;;;;;;16.48;5.35;;;;;;;0.33;100.00;103266.81;5251199;28;20021;-67
2022/01/28 07:27:52;;;;;;;19.52;5.78;;;;;;;0.29;100.00;103268.56;5264091;28;20033;-67
2022/01/28 07:30:24;;;;;;;24.00;5.30;;;;;;;0.25;100.00;103276.38;5264801;28;20036;-67
2022/01/28 07:32:55;;;;;;;20.48;5.75;;;;;;;0.25;100.00;103277.28;5257894;28;20033;-67
2022/01/28 07:35:27;;;;;;;20.17;6.10;;;;;;;0.25;100.00;103277.28;5255518;28;20029;-67
2022/01/28 07:37:59;;;;;;;13.93;5.38;;;;;;;0.17;100.00;103278.97;5253640;28;20720;-67
2022/01/28 07:40:30;;;;;;;15.57;4.80;;;;;;;0.22;100.00;103292.16;5259585;28;20029;-67
2022/01/28 07:43:02;;;;;;;17.08;5.50;;;;;;;0.21;100.00;103295.63;5261134;28;20111;-67
2022/01/28 07:45:34;;;;;;;17.50;5.38;;;;;;;0.18;100.00;103302.59;5256541;28;20032;-67
2022/01/28 07:48:05;;;;;;;17.88;5.88;;;;;;;0.13;100.00;103296.44;5250195;28;20040;-67
2022/01/28 07:50:36;;;;;;;23.30;5.97;;;;;;;0.09;100.00;103292.03;5258295;28;20124;-67
2022/01/28 07:53:09;;;;;;;18.00;5.60;;;;;;;0.20;100.00;103294.75;5253909;28;20412;-67
2022/01/28 07:55:40;;;;;;;16.30;5.53;;;;;;;0.07;100.00;103288.53;5257751;28;20033;-67
2022/01/28 07:58:11;;;;;;;17.40;5.60;;;;;;;0.08;100.00;103297.31;5254913;28;20512;-67
2022/01/28 08:00:42;;;;;;;18.70;6.35;;;;;;;0.06;100.00;103301.63;5253841;28;20560;-67
2022/01/28 08:03:14;;;;;;;18.27;6.00;;;;;;;0.07;100.00;103304.28;5248763;28;20497;-67
2022/01/28 08:05:45;;;;;;;19.02;6.35;;;;;;;0.04;100.00;103303.38;5252567;28;20439;-67
2022/01/28 08:08:19;;;;;;;19.23;5.65;;;;;;;0.10;100.00;103306.94;5270294;28;20032;-67
2022/01/28 08:10:51;;;;;;;16.02;6.05;;;;;;;0.15;100.00;103312.22;5256158;28;20025;-67
2022/01/28 08:13:22;;;;;;;19.48;6.07;;;;;;;0.15;100.00;103318.34;5255672;28;20079;-67
2022/01/28 08:15:54;;;;;;;21.13;6.53;;;;;;;0.11;100.00;103320.94;5255068;28;20496;-67
2022/01/28 08:18:25;;;;;;;19.88;7.10;;;;;;;0.09;100.00;103328.78;5254318;28;20703;-67
2022/01/28 08:20:58;;;;;;;20.58;7.18;;;;;;;0.07;100.00;103325.28;5254776;28;20032;-67
2022/01/28 08:23:30;;;;;;;21.15;7.32;;;;;;;0.10;100.00;103335.81;5253524;28;20390;-67
2022/01/28 08:26:01;;;;;;;16.73;7.88;;;;;;;0.17;100.00;103339.34;5252456;28;20056;-67
2022/01/28 08:28:33;;;;;;;22.88;8.45;;;;;;;0.14;100.00;103349.84;5255348;28;20102;-67
2022/01/28 08:31:04;;;;;;;20.55;8.80;;;;;;;0.19;100.00;103356.88;5256340;28;20131;-67
2022/01/28 08:33:35;;;;;;;23.63;8.38;;;;;;;0.12;100.00;103352.44;5254544;28;20036;-67
2022/01/28 08:36:07;;;;;;;31.85;9.45;;;;;;;0.19;100.00;103355.97;5254203;28;20433;-67
2022/01/28 08:38:45;;;;;;;28.40;9.25;;;;;;;0.24;100.00;103338.53;5252633;28;20479;-67
2022/01/28 08:41:17;;;;;;;26.65;9.43;;;;;;;0.18;100.00;103349.88;5287068;28;20036;-67
2022/01/28 08:43:48;;;;;;;20.10;9.40;;;;;;;0.23;100.00;103365.66;5255826;28;20024;-67
2022/01/28 08:46:19;;;;;;;28.58;10.27;;;;;;;0.29;100.00;103359.56;5254888;28;20071;-67
2022/01/28 08:48:51;;;;;;;26.95;10.38;;;;;;;0.28;100.00;103353.44;5252721;28;20031;-67
2022/01/28 08:51:22;;;;;;;22.50;10.30;;;;;;;0.34;100.00;103353.47;5253473;28;20032;-67
2022/01/28 08:53:54;;;;;;;22.05;10.98;;;;;;;0.42;100.00;103363.16;5251297;28;20129;-67
2022/01/28 08:56:25;;;;;;;31.52;12.05;;;;;;;0.47;100.00;103362.31;5252709;28;20021;-67
2022/01/28 08:58:57;;;;;;;27.58;12.63;;;;;;;0.51;100.00;103355.34;5251441;28;20033;-67
2022/01/28 09:01:29;;;;;;;23.75;12.13;;;;;;;0.56;100.00;103356.25;5252625;28;20186;-67
2022/01/28 09:04:01;;;;;;;31.25;13.25;;;;;;;0.58;100.00;103349.25;5250816;28;20025;-67
2022/01/28 09:06:32;;;;;;;34.08;12.75;;;;;;;0.62;100.00;103364.16;5251765;28;20037;-67
2022/01/28 09:09:04;;;;;;;37.65;13.50;;;;;;;0.64;100.00;103364.19;5251168;28;20493;-67
2022/01/28 09:11:48;;;;;;;37.78;13.38;;;;;;;0.70;100.00;103357.19;5253199;28;20067;-67
2022/01/28 09:14:20;;;;;;;26.63;12.63;;;;;;;0.78;100.00;103357.22;5253045;28;20491;-67
2022/01/28 09:16:52;;;;;;;29.20;13.80;;;;;;;0.90;100.00;103356.41;5252230;28;20078;-67
2022/01/28 09:19:23;;;;;;;35.50;14.48;;;;;;;0.93;100.00;103361.69;5250458;28;20449;-67
2022/01/28 09:21:55;;;;;;;36.47;15.80;;;;;;;1.11;100.00;103355.63;5254291;28;20104;-67
2022/01/28 09:24:26;;;;;;;43.67;18.40;;;;;;;1.30;100.00;103354.78;5250641;28;20430;-67
2022/01/28 09:26:57;;;;;;;33.22;17.55;;;;;;;1.36;100.00;103373.25;5255152;28;20468;-67
2022/01/28 09:29:28;;;;;;;50.10;18.80;;;;;;;1.38;100.00;103370.59;5250728;28;20108;-68
2022/01/28 09:32:00;;;;;;;35.05;18.42;;;;;;;1.46;100.00;103373.25;5254003;28;20029;-68
2022/01/28 09:34:32;;;;;;;43.75;19.10;;;;;;;1.52;100.00;103373.28;5252212;28;20039;-67
2022/01/28 09:37:03;;;;;;;44.33;20.02;;;;;;;1.66;100.00;103381.19;5253086;28;20111;-67
2022/01/28 09:39:39;;;;;;;48.28;20.70;;;;;;;1.74;100.00;103371.56;5253896;28;20031;-67
2022/01/28 09:42:14;;;;;;;45.17;21.02;;;;;;;1.78;100.00;103368.03;5253938;28;20040;-68
2022/01/28 09:44:46;;;;;;;49.83;22.60;;;;;;;2.03;100.00;103368.06;5248201;28;20044;-68
2022/01/28 09:47:18;;;;;;;50.40;22.25;;;;;;;2.06;100.00;103368.06;5253848;28;20032;-68
2022/01/28 09:49:49;;;;;;;50.13;22.42;;;;;;;2.07;100.00;103365.44;5251165;28;20399;-68
2022/01/28 09:52:20;;;;;;;52.53;23.10;;;;;;;2.10;100.00;103380.34;5249290;28;20029;-68
2022/01/28 09:54:52;;;;;;;52.08;23.15;;;;;;;2.26;100.00;103389.13;5253906;28;20110;-68
2022/01/28 09:57:23;;;;;;;48.97;24.77;;;;;;;2.48;100.00;103390.00;5250543;28;20024;-68
2022/01/28 09:59:54;;;;;;;51.97;26.13;;;;;;;2.54;100.00;103390.84;5253327;28;20694;-68
2022/01/28 10:02:49;;;;;;;45.97;25.50;;;;;;;2.50;100.00;103383.81;5250828;28;20051;-68
2022/01/28 10:05:30;;;;;;;53.58;25.35;;;;;;;2.65;100.00;103396.09;5251039;28;20028;-68
2022/01/28 10:08:10;;;;;;;54.60;26.02;;;;;;;2.64;100.00;103381.16;5252663;28;20028;-68
2022/01/28 10:10:50;;;;;;;55.13;25.30;;;;;;;2.81;100.00;103378.47;5252632;28;20032;-68
2022/01/28 10:13:33;;;;;;;47.47;24.70;;;;;;;2.84;100.00;103388.13;5250611;28;20048;-68
2022/01/28 10:16:12;;;;;;;55.03;24.73;;;;;;;2.87;100.00;103383.72;5249931;28;20041;-68
2022/01/28 10:18:43;;;;;;;43.80;22.50;;;;;;;2.89;100.00;103386.38;5253808;28;20032;-68
2022/01/28 10:21:26;;;;;;;45.10;21.73;;;;;;;2.97;100.00;103383.69;5253009;28;20028;-68
2022/01/28 10:24:03;;;;;;;38.88;19.35;;;;;;;3.04;100.00;103390.72;5252106;28;20029;-68
2022/01/28 10:26:35;;;;;;;45.40;19.42;;;;;;;3.01;100.00;103393.34;5251593;28;20072;-68
2022/01/28 10:29:09;;;;;;;46.47;18.45;;;;;;;2.99;100.00;103390.72;5251307;28;20526;-68
2022/01/28 10:31:48;;;;;;;44.28;18.83;;;;;;;3.11;100.00;103390.69;5251513;28;20099;-68
2022/01/28 10:34:45;;;;;;;38.22;17.90;;;;;;;3.24;100.00;103388.88;5249091;28;20033;-68
2022/01/28 10:37:25;;;;;;;40.72;18.17;;;;;;;3.34;100.00;103398.50;5253826;28;20036;-68
2022/01/28 10:40:06;;;;;;;42.08;17.50;;;;;;;3.45;100.00;103398.44;5252385;28;20108;-68
2022/01/28 10:42:42;;;;;;;39.40;17.95;;;;;;;3.51;100.00;103397.53;5251601;28;20079;-68
2022/01/28 10:45:17;;;;;;;46.00;16.83;;;;;;;3.55;100.00;103404.53;5252170;28;20111;-68
2022/01/28 10:47:53;;;;;;;39.05;16.83;;;;;;;3.60;100.00;103408.00;5251629;28;20061;-68
2022/01/28 10:50:36;;;;;;;40.15;16.38;;;;;;;3.78;100.00;103393.84;5252637;28;20475;-68
2022/01/28 10:53:16;;;;;;;35.88;14.52;;;;;;;3.83;100.00;103388.50;5253623;28;20451;-68
2022/01/28 10:55:54;;;;;;;35.85;13.27;;;;;;;4.01;100.00;103388.38;5249927;28;20339;-68
2022/01/28 10:58:27;;;;;;;32.65;13.35;;;;;;;4.05;100.00;103389.25;5250815;28;20029;-68
2022/01/28 11:00:59;;;;;;;29.77;10.77;;;;;;;4.16;100.00;103386.50;5254889;28;20055;-68
2022/01/28 11:03:31;;;;;;;34.25;10.13;;;;;;;4.20;100.00;103377.63;5252807;28;20033;-68
2022/01/28 11:06:05;;;;;;;30.30;9.95;;;;;;;4.21;100.00;103382.03;5253171;28;20178;-68
2022/01/28 11:08:36;;;;;;;26.05;8.52;;;;;;;4.29;100.00;103374.91;5250667;28;20028;-68
2022/01/28 11:11:08;;;;;;;23.60;7.85;;;;;;;4.34;100.00;103378.41;5253286;28;20550;-68
2022/01/28 11:13:41;;;;;;;23.80;7.22;;;;;;;4.34;100.00;103377.53;5253346;28;20052;-68
2022/01/28 11:16:13;;;;;;;21.98;6.65;;;;;;;4.41;100.00;103371.28;5251819;28;20032;-68
2022/01/28 11:18:45;;;;;;;19.27;6.15;;;;;;;4.38;100.00;103366.03;5251566;28;20409;-68
2022/01/28 11:21:19;;;;;;;26.60;6.93;;;;;;;4.36;100.00;103350.19;5252300;28;20027;-68
2022/01/28 11:23:56;;;;;;;19.25;6.82;;;;;;;4.47;100.00;103356.25;5249055;28;20024;-68
2022/01/28 11:26:38;;;;;;;18.02;5.95;;;;;;;4.44;100.00;103350.97;5251750;28;20383;-68
2022/01/28 11:29:24;;;;;;;20.50;6.95;;;;;;;4.42;100.00;103342.19;5257302;28;20037;-69
2022/01/28 11:31:57;;;;;;;29.92;7.03;;;;;;;4.44;100.00;103340.41;5255972;28;20025;-69
2022/01/28 11:34:31;;;;;;;19.30;5.80;;;;;;;4.51;100.00;103344.75;5252701;28;20490;-69
2022/01/28 11:37:02;;;;;;;17.98;5.43;;;;;;;4.48;100.00;103339.47;5252584;28;21245;-69
2022/01/28 11:39:39;;;;;;;23.48;4.97;;;;;;;4.54;100.00;103338.53;5257004;28;20033;-69
2022/01/28 11:42:13;;;;;;;18.65;3.92;;;;;;;4.60;100.00;103342.88;5255660;28;20032;-68
2022/01/28 11:44:50;;;;;;;15.38;4.90;;;;;;;4.78;100.00;103341.81;5247296;28;20116;-68
2022/01/28 11:47:27;;;;;;;13.82;3.60;;;;;;;4.88;100.00;103330.22;5256236;28;20025;-68
2022/01/28 11:50:09;;;;;;;17.60;4.25;;;;;;;4.91;100.00;103327.53;5254485;28;20058;-68
2022/01/28 11:52:49;;;;;;;15.88;5.03;;;;;;;4.86;100.00;103332.00;5253939;28;20520;-68
2022/01/28 11:55:26;;;;;;;14.43;4.43;;;;;;;5.00;100.00;103331.81;5257502;28;20035;-68
2022/01/28 11:58:00;;;;;;;15.63;4.32;;;;;;;4.90;100.00;103326.66;5254223;28;20021;-68
2022/01/28 12:00:39;;;;;;;9.43;2.10;;;;;;;5.05;100.00;103319.41;5255437;28;20118;-68
2022/01/28 12:03:24;;;;;;;10.23;2.65;;;;;;;5.20;100.00;103326.28;5256493;28;20475;-68
2022/01/28 12:05:57;;;;;;;17.05;3.35;;;;;;;5.48;100.00;103326.72;5255625;28;20027;-68
2022/01/28 12:08:30;;;;;;;13.13;3.17;;;;;;;5.43;100.00;103334.75;5252284;28;20025;-68
2022/01/28 12:11:06;;;;;;;12.98;3.53;;;;;;;5.55;100.00;103330.19;5257805;28;20501;-68
2022/01/28 12:14:03;;;;;;;13.23;3.70;;;;;;;5.64;100.00;103322.09;5254891;28;20445;-68
2022/01/28 12:16:39;;;;;;;15.13;4.60;;;;;;;5.82;100.00;103318.25;5252365;28;20132;-68
2022/01/28 12:19:22;;;;;;;10.98;2.90;;;;;;;5.94;99.59;103319.81;5255183;28;20465;-68
2022/01/28 12:22:07;;;;;;;14.93;3.33;;;;;;;6.01;99.27;103310.91;5249884;28;20028;-68
2022/01/28 12:24:39;;;;;;;8.30;2.72;;;;;;;6.14;95.57;103309.78;5256286;28;20085;-68
2022/01/28 12:27:13;;;;;;;12.32;2.90;;;;;;;6.19;98.38;103294.66;5253205;28;20021;-68
2022/01/28 12:29:46;;;;;;;11.88;2.83;;;;;;;6.18;96.66;103294.72;5253432;28;20040;-68
2022/01/28 12:32:24;;;;;;;8.82;2.97;;;;;;;6.20;97.21;103290.25;5257879;28;20111;-68
2022/01/28 12:34:55;;;;;;;12.32;3.22;;;;;;;6.14;98.40;103285.94;5251880;28;20056;-68
2022/01/28 12:37:32;;;;;;;13.98;3.97;;;;;;;6.17;97.54;103285.84;5253097;28;20111;-68
2022/01/28 12:40:13;;;;;;;20.70;5.57;;;;;;;6.12;98.98;103287.75;5254328;28;20036;-68
2022/01/28 12:42:45;;;;;;;16.90;6.55;;;;;;;6.06;99.24;103277.25;5255180;28;20033;-68
2022/01/28 12:45:19;;;;;;;20.30;5.75;;;;;;;5.95;99.90;103279.19;5255548;28;20545;-68
2022/01/28 12:47:51;;;;;;;15.60;5.93;;;;;;;5.93;96.35;103271.25;5249887;28;20102;-68
2022/01/28 12:50:23;;;;;;;16.55;6.05;;;;;;;5.93;96.97;103275.69;5253860;28;20044;-68
2022/01/28 12:52:54;;;;;;;18.08;6.90;;;;;;;5.90;98.80;103274.81;5256493;28;20044;-68
2022/01/28 12:55:35;;;;;;;18.60;6.10;;;;;;;5.92;96.37;103272.16;5254533;28;20400;-68
2022/01/28 12:58:10;;;;;;;15.95;6.10;;;;;;;5.94;99.07;103265.03;5256466;28;20067;-68
2022/01/28 13:00:41;;;;;;;15.18;6.78;;;;;;;5.85;99.80;103262.59;5252342;28;20399;-68
2022/01/28 13:03:28;;;;;;;20.25;7.75;;;;;;;5.92;96.85;103266.00;5253699;28;21427;-68
2022/01/28 13:06:42;;;;;;;16.25;7.70;;;;;;;5.85;98.39;103258.16;5256154;28;20485;-68